Time;durP1;ratioP1;P1;durP2;ratioP2;P2;SDS_P1;SDS_P2;PMS_P1;PMS_P2;Temp;Humidity;BMP_temperature;BMP_pressure;BME280_temperature;BME280_humidity;BME280_pressure;Samples;Min_cycle;Max_cycle;Signal;HPM_P1;HPM_P2
2022/10/09 00:01:10;;;;;;;0.40;0.28;;;21.50;60.50;;;;;;4979736;28;20051;-42
2022/10/09 00:03:37;;;;;;;0.30;0.28;;;21.40;60.50;;;;;;4978623;28;20460;-43
2022/10/09 00:06:02;;;;;;;0.20;0.10;;;21.50;60.50;;;;;;4974952;28;20043;-42
2022/10/09 00:08:28;;;;;;;1.15;0.50;;;21.40;60.50;;;;;;4979402;28;20042;-42
2022/10/09 00:10:54;;;;;;;0.60;0.30;;;21.40;60.30;;;;;;4996092;28;20512;-43
2022/10/09 00:13:19;;;;;;;0.32;0.20;;;21.40;60.30;;;;;;4978863;28;20039;-42
2022/10/09 00:15:45;;;;;;;0.40;0.30;;;21.40;60.30;;;;;;4996340;28;20117;-39
2022/10/09 00:18:13;;;;;;;0.30;0.30;;;21.40;60.40;;;;;;4982456;28;20137;-43
2022/10/09 00:20:40;;;;;;;0.65;0.30;;;21.40;60.30;;;;;;4981619;28;20109;-43
2022/10/09 00:23:06;;;;;;;0.30;0.20;;;21.40;60.40;;;;;;4979204;28;20132;-42
2022/10/09 00:25:32;;;;;;;0.35;0.25;;;21.40;60.40;;;;;;4982783;28;20108;-43
2022/10/09 00:27:58;;;;;;;0.50;0.22;;;21.40;60.50;;;;;;4979613;28;20528;-43
2022/10/09 00:30:24;;;;;;;1.73;0.52;;;21.30;60.50;;;;;;4979506;28;20057;-42
2022/10/09 00:32:50;;;;;;;0.35;0.32;;;21.40;60.30;;;;;;4979912;28;20073;-42
2022/10/09 00:35:15;;;;;;;0.50;0.20;;;21.40;60.30;;;;;;4979136;28;20051;-43
2022/10/09 00:37:41;;;;;;;0.20;0.20;;;21.40;60.30;;;;;;4977797;28;20461;-41
2022/10/09 00:40:07;;;;;;;1.52;0.20;;;21.30;60.40;;;;;;4981459;28;20109;-44
2022/10/09 00:42:32;;;;;;;0.30;0.20;;;21.40;60.30;;;;;;4977749;28;20058;-42
2022/10/09 00:45:00;;;;;;;0.30;0.30;;;21.40;60.30;;;;;;4976472;28;20047;-42
2022/10/09 00:47:29;;;;;;;0.70;0.63;;;21.40;60.20;;;;;;4981326;28;20046;-38
2022/10/09 00:49:58;;;;;;;0.20;0.20;;;21.40;60.10;;;;;;5008211;28;20049;-36
2022/10/09 00:52:24;;;;;;;1.58;0.30;;;21.40;60.20;;;;;;4977811;28;20073;-45
2022/10/09 00:54:49;;;;;;;0.38;0.30;;;21.30;60.10;;;;;;4994710;28;20062;-36
2022/10/09 00:57:15;;;;;;;0.68;0.30;;;21.30;60.10;;;;;;4991406;28;20539;-39
2022/10/09 00:59:40;;;;;;;0.82;0.50;;;21.30;60.20;;;;;;5009338;28;20465;-37
2022/10/09 01:02:06;;;;;;;0.70;0.50;;;21.30;60.20;;;;;;5006513;28;20101;-47
2022/10/09 01:04:32;;;;;;;0.50;0.30;;;21.30;60.10;;;;;;4993997;28;20049;-47
2022/10/09 01:07:22;;;;;;;0.30;0.20;;;21.30;60.10;;;;;;4978583;28;20564;-49
2022/10/09 01:09:51;;;;;;;0.32;0.30;;;21.30;60.10;;;;;;4978207;28;20046;-26
2022/10/09 01:12:40;;;;;;;0.25;0.20;;;21.30;60.10;;;;;;4977673;28;20043;-36
2022/10/09 01:15:42;;;;;;;0.57;0.30;;;21.30;60.10;;;;;;4992186;28;20059;-36
2022/10/09 01:18:15;;;;;;;0.65;0.43;;;21.30;60.10;;;;;;5009456;28;20128;-41
2022/10/09 01:20:46;;;;;;;0.40;0.40;;;21.30;60.10;;;;;;5011438;28;20527;-35
2022/10/09 01:23:40;;;;;;;0.20;0.20;;;21.30;60.00;;;;;;4989081;28;20074;-35
2022/10/09 01:26:15;;;;;;;0.38;0.30;;;21.30;60.10;;;;;;4990654;28;20051;-42
2022/10/09 01:28:50;;;;;;;0.30;0.30;;;21.30;60.10;;;;;;4977903;28;20051;-46
2022/10/09 01:31:16;;;;;;;0.60;0.50;;;21.30;60.00;;;;;;4993018;28;20533;-43
2022/10/09 01:33:41;;;;;;;0.20;0.20;;;21.30;60.10;;;;;;4992327;28;20046;-39
2022/10/09 01:36:07;;;;;;;0.30;0.30;;;21.30;60.10;;;;;;4976294;28;20406;-35
2022/10/09 01:38:33;;;;;;;0.30;0.30;;;21.30;60.00;;;;;;4992416;28;20058;-40
2022/10/09 01:40:58;;;;;;;0.50;0.32;;;21.20;59.90;;;;;;4992376;28;20046;-37
2022/10/09 01:43:24;;;;;;;0.10;0.10;;;21.30;60.00;;;;;;4977501;28;20045;-40
2022/10/09 01:45:49;;;;;;;0.50;0.30;;;21.30;60.70;;;;;;4976310;28;20050;-43
2022/10/09 01:48:22;;;;;;;0.25;0.20;;;21.30;59.90;;;;;;4973212;28;20053;-35
2022/10/09 01:50:53;;;;;;;0.40;0.30;;;21.20;59.90;;;;;;4976366;28;20046;-43
2022/10/09 01:53:18;;;;;;;0.30;0.30;;;21.20;60.00;;;;;;4976939;28;20055;-35
2022/10/09 01:56:06;;;;;;;0.50;0.30;;;21.20;59.80;;;;;;4991254;28;20059;-39
2022/10/09 01:58:37;;;;;;;0.60;0.45;;;21.20;59.90;;;;;;4977604;28;20065;-37
2022/10/09 02:01:12;;;;;;;0.22;0.20;;;21.20;60.70;;;;;;4975093;28;20034;-36
2022/10/09 02:03:39;;;;;;;0.43;0.30;;;21.20;59.90;;;;;;4975984;28;20062;-38
2022/10/09 02:06:05;;;;;;;0.30;0.25;;;21.20;59.90;;;;;;4992774;28;20079;-44
2022/10/09 02:08:31;;;;;;;0.40;0.32;;;21.20;59.90;;;;;;4993020;28;20189;-37
2022/10/09 02:10:57;;;;;;;0.38;0.30;;;21.20;59.80;;;;;;4976650;28;20575;-39
2022/10/09 02:13:23;;;;;;;0.15;0.15;;;21.20;59.80;;;;;;4990892;28;20129;-38
2022/10/09 02:15:51;;;;;;;0.30;0.30;;;21.20;59.80;;;;;;4979695;28;20085;-38
2022/10/09 02:18:24;;;;;;;0.30;0.30;;;21.20;59.80;;;;;;4996247;28;20140;-39
2022/10/09 02:20:51;;;;;;;0.30;0.30;;;21.20;59.80;;;;;;5002601;28;20038;-39
2022/10/09 02:23:16;;;;;;;0.30;0.22;;;21.20;59.80;;;;;;4974340;28;20668;-50
2022/10/09 02:25:42;;;;;;;0.75;0.30;;;21.20;60.50;;;;;;4984957;28;20146;-41
2022/10/09 02:28:08;;;;;;;0.30;0.30;;;21.20;59.80;;;;;;4990872;28;20398;-52
2022/10/09 02:30:42;;;;;;;0.50;0.28;;;21.20;59.80;;;;;;4995780;28;20054;-35
2022/10/09 02:33:08;;;;;;;0.22;0.20;;;21.20;59.80;;;;;;4994463;28;20045;-35
2022/10/09 02:35:34;;;;;;;0.20;0.20;;;21.20;59.90;;;;;;4983340;28;20046;-40
2022/10/09 02:37:59;;;;;;;0.43;0.30;;;21.10;59.70;;;;;;4998512;28;20050;-40
2022/10/09 02:40:25;;;;;;;0.40;0.40;;;21.20;59.80;;;;;;4996969;28;20539;-38
2022/10/09 02:42:50;;;;;;;0.30;0.30;;;21.20;59.70;;;;;;4981331;28;20042;-47
2022/10/09 02:45:16;;;;;;;0.22;0.20;;;21.10;59.80;;;;;;4975271;28;20501;-45
2022/10/09 02:47:41;;;;;;;1.13;0.30;;;21.10;59.80;;;;;;4980255;28;20188;-51
2022/10/09 02:50:07;;;;;;;0.20;0.20;;;21.10;59.80;;;;;;4978271;28;20430;-39
2022/10/09 02:52:33;;;;;;;0.22;0.22;;;21.10;59.80;;;;;;4982825;28;20057;-48
2022/10/09 02:54:58;;;;;;;0.30;0.30;;;21.10;60.50;;;;;;4980053;28;20055;-33
2022/10/09 02:57:24;;;;;;;0.40;0.32;;;21.10;59.80;;;;;;4984516;28;20049;-36
2022/10/09 02:59:50;;;;;;;0.22;0.22;;;21.10;59.80;;;;;;4981969;28;20151;-36
2022/10/09 03:02:15;;;;;;;0.30;0.30;;;21.10;59.80;;;;;;4982802;28;20047;-53
2022/10/09 03:04:41;;;;;;;0.40;0.38;;;21.10;59.80;;;;;;4981316;28;20053;-36
2022/10/09 03:07:06;;;;;;;0.20;0.20;;;21.10;59.70;;;;;;4982187;28;20036;-38
2022/10/09 03:09:32;;;;;;;1.40;0.20;;;21.10;59.80;;;;;;4983473;28;20082;-36
2022/10/09 03:11:57;;;;;;;0.35;0.35;;;21.10;59.80;;;;;;4980483;28;20117;-35
2022/10/09 03:14:23;;;;;;;0.65;0.30;;;21.10;59.80;;;;;;4982605;28;20043;-45
2022/10/09 03:16:48;;;;;;;0.32;0.32;;;21.10;59.90;;;;;;4978421;28;20121;-35
2022/10/09 03:19:14;;;;;;;0.10;0.10;;;21.10;59.70;;;;;;4980219;28;20042;-35
2022/10/09 03:21:40;;;;;;;0.20;0.10;;;21.10;59.80;;;;;;4978497;28;20042;-37
2022/10/09 03:24:05;;;;;;;0.20;0.20;;;21.00;59.80;;;;;;4983134;28;20039;-36
2022/10/09 03:26:31;;;;;;;0.30;0.20;;;21.10;59.80;;;;;;4980006;28;20048;-37
2022/10/09 03:28:56;;;;;;;0.20;0.20;;;21.10;59.80;;;;;;4979952;28;20059;-35
2022/10/09 03:31:23;;;;;;;0.63;0.28;;;21.10;59.80;;;;;;4983518;28;20063;-36
2022/10/09 03:33:49;;;;;;;0.50;0.40;;;21.10;59.90;;;;;;4983510;28;20038;-35
2022/10/09 03:36:14;;;;;;;0.68;0.40;;;21.10;59.80;;;;;;4981402;28;20042;-36
2022/10/09 03:38:40;;;;;;;0.20;0.20;;;21.10;59.80;;;;;;4975019;28;20086;-51
2022/10/09 03:41:06;;;;;;;0.38;0.20;;;21.10;60.70;;;;;;4982355;28;20081;-46
2022/10/09 03:43:31;;;;;;;0.38;0.38;;;21.10;59.80;;;;;;4977781;28;20425;-44
2022/10/09 03:45:57;;;;;;;0.20;0.20;;;21.10;59.80;;;;;;4980427;28;20038;-44
2022/10/09 03:48:23;;;;;;;0.22;0.22;;;21.10;59.80;;;;;;4980653;28;20571;-37
2022/10/09 03:50:48;;;;;;;0.45;0.38;;;21.10;60.50;;;;;;4983457;28;20456;-44
2022/10/09 03:53:14;;;;;;;0.30;0.20;;;21.00;59.80;;;;;;4980773;28;20126;-39
2022/10/09 03:55:40;;;;;;;0.00;0.00;;;21.00;59.80;;;;;;4981620;28;20054;-36
2022/10/09 03:58:05;;;;;;;0.15;0.15;;;21.10;59.90;;;;;;4978075;28;20054;-42
2022/10/09 04:00:31;;;;;;;0.57;0.20;;;21.00;59.70;;;;;;4978808;28;20535;-36
2022/10/09 04:02:57;;;;;;;1.15;0.28;;;21.10;59.80;;;;;;4977822;28;20058;-38
2022/10/09 04:05:22;;;;;;;0.20;0.20;;;21.10;60.50;;;;;;4977717;28;20054;-41
2022/10/09 04:07:48;;;;;;;0.30;0.20;;;21.10;59.80;;;;;;4982815;28;20046;-38
2022/10/09 04:10:13;;;;;;;1.55;0.20;;;21.10;59.70;;;;;;4979749;28;21044;-36
2022/10/09 04:12:39;;;;;;;0.20;0.20;;;21.00;59.70;;;;;;4975367;28;20731;-41
2022/10/09 04:15:05;;;;;;;0.17;0.17;;;21.00;59.80;;;;;;4980567;28;20046;-40
2022/10/09 04:17:31;;;;;;;0.30;0.10;;;21.00;59.80;;;;;;4979080;28;20053;-52
2022/10/09 04:19:56;;;;;;;0.52;0.20;;;21.00;59.70;;;;;;4977455;28;20050;-48
2022/10/09 04:22:22;;;;;;;0.30;0.30;;;21.00;59.90;;;;;;4980764;28;20100;-39
2022/10/09 04:24:47;;;;;;;0.20;0.20;;;21.00;59.80;;;;;;4976813;28;20071;-44
2022/10/09 04:27:13;;;;;;;0.25;0.25;;;21.00;59.80;;;;;;4976327;28;20076;-40
2022/10/09 04:29:38;;;;;;;0.30;0.20;;;21.00;59.80;;;;;;4980649;28;20121;-48
2022/10/09 04:32:05;;;;;;;0.30;0.30;;;21.00;60.50;;;;;;4979495;28;20116;-41
2022/10/09 04:34:30;;;;;;;0.38;0.10;;;21.00;59.80;;;;;;4982125;28;20038;-37
2022/10/09 04:36:56;;;;;;;0.28;0.17;;;21.00;59.80;;;;;;4976376;28;20046;-45
2022/10/09 04:39:21;;;;;;;0.30;0.13;;;21.00;59.70;;;;;;4976986;28;20046;-49
2022/10/09 04:41:47;;;;;;;0.45;0.20;;;21.00;59.70;;;;;;4980272;28;20050;-43
2022/10/09 04:44:12;;;;;;;0.30;0.20;;;21.00;59.70;;;;;;4977600;28;20047;-36
2022/10/09 04:46:38;;;;;;;0.22;0.22;;;21.00;59.80;;;;;;4981279;28;20054;-50
2022/10/09 04:49:03;;;;;;;0.30;0.30;;;21.00;59.70;;;;;;4972703;28;20034;-50
2022/10/09 04:51:29;;;;;;;0.20;0.20;;;21.00;59.80;;;;;;4975186;28;20046;-38
2022/10/09 04:53:55;;;;;;;0.25;0.20;;;21.00;59.70;;;;;;4979588;28;20054;-40
2022/10/09 04:56:21;;;;;;;0.20;0.20;;;21.00;60.40;;;;;;4970908;28;20137;-35
2022/10/09 04:58:46;;;;;;;0.22;0.10;;;21.00;60.40;;;;;;4975258;28;20046;-49
2022/10/09 05:01:14;;;;;;;0.70;0.45;;;21.00;59.80;;;;;;4974540;28;20042;-44
2022/10/09 05:03:40;;;;;;;0.30;0.20;;;21.00;59.70;;;;;;4971752;28;20501;-50
2022/10/09 05:06:07;;;;;;;0.38;0.28;;;21.00;59.70;;;;;;4973939;28;20061;-41
2022/10/09 05:08:33;;;;;;;0.20;0.10;;;21.00;59.70;;;;;;4967821;28;20615;-47
2022/10/09 05:11:03;;;;;;;0.22;0.20;;;21.00;59.70;;;;;;4973285;28;20059;-46
2022/10/09 05:13:29;;;;;;;0.50;0.22;;;21.00;59.70;;;;;;4975448;28;20521;-43
2022/10/09 05:15:55;;;;;;;0.20;0.20;;;20.90;59.70;;;;;;4969061;28;21199;-42
2022/10/09 05:18:21;;;;;;;1.42;0.20;;;21.00;59.70;;;;;;4967952;28;20050;-42
2022/10/09 05:20:46;;;;;;;0.40;0.30;;;20.90;59.50;;;;;;4974301;28;20129;-42
2022/10/09 05:23:12;;;;;;;0.57;0.20;;;20.90;59.60;;;;;;4970323;28;20425;-42
2022/10/09 05:25:37;;;;;;;1.10;0.20;;;20.90;59.60;;;;;;4971232;28;20031;-42
2022/10/09 05:28:03;;;;;;;0.85;0.20;;;20.90;59.60;;;;;;4975371;28;20043;-43
2022/10/09 05:30:29;;;;;;;0.25;0.20;;;20.90;59.40;;;;;;4972809;28;20509;-43
2022/10/09 05:32:54;;;;;;;0.68;0.30;;;20.90;59.50;;;;;;4969009;28;20035;-42
2022/10/09 05:35:20;;;;;;;0.10;0.10;;;20.90;59.50;;;;;;4968918;28;20121;-42
2022/10/09 05:37:45;;;;;;;0.20;0.20;;;20.90;59.40;;;;;;4975675;28;20495;-42
2022/10/09 05:40:11;;;;;;;0.32;0.20;;;20.90;59.40;;;;;;4971632;28;20533;-43
2022/10/09 05:42:36;;;;;;;0.20;0.20;;;20.90;59.60;;;;;;4974483;28;20043;-42
2022/10/09 05:45:02;;;;;;;0.13;0.10;;;20.90;59.60;;;;;;4974868;28;20129;-42
2022/10/09 05:47:31;;;;;;;0.20;0.20;;;20.90;59.60;;;;;;4974534;28;20425;-41
2022/10/09 05:49:56;;;;;;;0.10;0.10;;;20.90;59.80;;;;;;4974521;28;20183;-42
2022/10/09 05:52:22;;;;;;;0.45;0.20;;;20.90;60.00;;;;;;4972504;28;20615;-43
2022/10/09 05:54:48;;;;;;;0.20;0.20;;;20.90;60.00;;;;;;4975429;28;20588;-42
2022/10/09 05:57:14;;;;;;;0.20;0.17;;;20.90;60.10;;;;;;4971247;28;20038;-42
2022/10/09 05:59:40;;;;;;;0.55;0.17;;;20.90;60.20;;;;;;4968784;28;20172;-43
2022/10/09 06:02:05;;;;;;;0.28;0.28;;;20.90;59.90;;;;;;4971992;28;20796;-42
2022/10/09 06:04:31;;;;;;;0.20;0.17;;;20.90;59.90;;;;;;4975464;28;20046;-43
2022/10/09 06:06:56;;;;;;;0.30;0.20;;;20.90;60.00;;;;;;4973552;28;20039;-42
2022/10/09 06:09:22;;;;;;;0.30;0.10;;;20.90;60.20;;;;;;4969680;28;20041;-42
2022/10/09 06:11:49;;;;;;;0.43;0.20;;;20.90;60.20;;;;;;4977038;28;20045;-45
2022/10/09 06:14:15;;;;;;;0.20;0.17;;;20.90;60.30;;;;;;4971728;28;20047;-42
2022/10/09 06:16:41;;;;;;;0.20;0.20;;;20.90;60.40;;;;;;4974878;28;20092;-42
2022/10/09 06:19:08;;;;;;;0.20;0.20;;;20.90;60.40;;;;;;4973210;28;20085;-42
2022/10/09 06:21:34;;;;;;;0.38;0.13;;;20.90;60.20;;;;;;4988544;28;20457;-43
2022/10/09 06:24:00;;;;;;;0.20;0.20;;;20.90;60.30;;;;;;4971351;28;20054;-44
2022/10/09 06:26:29;;;;;;;0.93;0.30;;;20.90;60.30;;;;;;4971451;28;20054;-41
2022/10/09 06:28:55;;;;;;;0.15;0.10;;;20.90;60.70;;;;;;4973252;28;20138;-42
2022/10/09 06:31:23;;;;;;;0.35;0.20;;;20.90;60.40;;;;;;4973594;28;22322;-42
2022/10/09 06:33:49;;;;;;;0.20;0.10;;;20.80;61.30;;;;;;4971788;28;20465;-42
2022/10/09 06:36:19;;;;;;;1.63;0.20;;;20.90;60.30;;;;;;4974315;28;20034;-42
2022/10/09 06:38:45;;;;;;;0.45;0.22;;;20.90;60.70;;;;;;4964847;28;20754;-42
2022/10/09 06:41:15;;;;;;;0.20;0.20;;;20.90;60.70;;;;;;4977062;28;20042;-43
2022/10/09 06:43:41;;;;;;;0.20;0.10;;;20.80;61.60;;;;;;4972448;28;20061;-42
2022/10/09 06:46:10;;;;;;;0.25;0.10;;;20.90;60.70;;;;;;4976149;28;20489;-42
2022/10/09 06:48:36;;;;;;;2.47;0.25;;;20.80;60.80;;;;;;4974098;28;20501;-42
2022/10/09 06:51:06;;;;;;;0.38;0.20;;;20.80;60.90;;;;;;4971874;28;20038;-42
2022/10/09 06:53:36;;;;;;;0.85;0.25;;;20.80;60.90;;;;;;4972877;28;20033;-42
2022/10/09 06:56:01;;;;;;;0.60;0.20;;;20.80;60.60;;;;;;4984113;28;20053;-42
2022/10/09 06:58:27;;;;;;;0.65;0.20;;;20.80;60.60;;;;;;4972160;28;20059;-42
2022/10/09 07:01:08;;;;;;;0.35;0.30;;;20.80;60.80;;;;;;4975591;28;20038;-43
2022/10/09 07:03:34;;;;;;;0.20;0.20;;;20.80;61.00;;;;;;4969509;28;20051;-43
2022/10/09 07:06:20;;;;;;;0.40;0.30;;;20.80;61.80;;;;;;4971887;28;20100;-43
2022/10/09 07:08:47;;;;;;;0.20;0.20;;;20.80;61.10;;;;;;4971500;28;20046;-43
2022/10/09 07:11:23;;;;;;;0.15;0.10;;;20.80;60.90;;;;;;4971592;28;20170;-42
2022/10/09 07:13:50;;;;;;;0.20;0.17;;;20.80;60.90;;;;;;4967272;28;20047;-43
2022/10/09 07:16:21;;;;;;;0.30;0.28;;;20.80;60.90;;;;;;4990612;28;20050;-43
2022/10/09 07:18:47;;;;;;;0.40;0.30;;;20.80;61.00;;;;;;4975766;28;20468;-43
2022/10/09 07:21:12;;;;;;;0.20;0.20;;;20.80;61.30;;;;;;4972395;28;20046;-43
2022/10/09 07:23:38;;;;;;;0.22;0.15;;;20.80;61.20;;;;;;4621068;28;10000103;-43
2022/10/09 07:26:15;;;;;;;0.30;0.30;;;20.70;62.00;;;;;;4628083;28;10000131;-43
2022/10/09 07:28:40;;;;;;;0.85;0.32;;;20.70;61.00;;;;;;4971451;28;20104;-43
2022/10/09 07:31:06;;;;;;;1.90;0.30;;;20.80;62.10;;;;;;4972132;28;20501;-42
2022/10/09 07:33:32;;;;;;;0.57;0.30;;;20.80;62.80;;;;;;4969933;28;20437;-43
2022/10/09 07:35:58;;;;;;;2.30;0.32;;;20.80;63.00;;;;;;4970258;28;20394;-42
2022/10/09 07:38:24;;;;;;;0.90;0.25;;;20.70;64.00;;;;;;4974726;28;20839;-42
2022/10/09 07:40:52;;;;;;;0.40;0.20;;;20.70;63.50;;;;;;4971671;28;20061;-42
2022/10/09 07:43:18;;;;;;;0.35;0.30;;;20.70;63.40;;;;;;4971212;28;20428;-41
2022/10/09 07:45:44;;;;;;;1.48;0.20;;;20.70;63.20;;;;;;4968333;28;20043;-42
2022/10/09 07:48:09;;;;;;;1.85;0.20;;;20.70;63.50;;;;;;4970453;28;20062;-43
2022/10/09 07:50:35;;;;;;;0.70;0.20;;;20.70;63.60;;;;;;4969319;28;20128;-43
2022/10/09 07:53:00;;;;;;;0.20;0.10;;;20.70;63.30;;;;;;4971857;28;20042;-42
2022/10/09 07:55:26;;;;;;;1.48;0.38;;;20.70;63.60;;;;;;4969408;28;20039;-42
2022/10/09 07:57:51;;;;;;;1.75;0.20;;;20.70;63.40;;;;;;4970770;28;20054;-41
2022/10/09 08:00:17;;;;;;;4.93;0.30;;;20.70;63.30;;;;;;4969326;28;20058;-42
2022/10/09 08:02:43;;;;;;;0.73;0.15;;;20.70;63.40;;;;;;4969822;28;20528;-42
2022/10/09 08:05:08;;;;;;;0.30;0.20;;;20.70;63.40;;;;;;4965785;28;20066;-42
2022/10/09 08:07:34;;;;;;;0.30;0.30;;;20.70;63.70;;;;;;4968410;28;20394;-41
2022/10/09 08:10:00;;;;;;;1.05;0.77;;;20.70;63.50;;;;;;4969050;28;20057;-43
2022/10/09 08:12:25;;;;;;;0.40;0.10;;;20.70;63.40;;;;;;4964863;28;20089;-43
2022/10/09 08:14:51;;;;;;;0.38;0.13;;;20.80;63.40;;;;;;4961306;28;20043;-43
2022/10/09 08:17:17;;;;;;;0.52;0.30;;;20.70;63.20;;;;;;4964442;28;21463;-42
2022/10/09 08:19:42;;;;;;;1.70;0.30;;;20.70;63.10;;;;;;4961073;28;20105;-43
2022/10/09 08:22:08;;;;;;;0.20;0.20;;;20.80;63.20;;;;;;4963669;28;20110;-42
2022/10/09 08:24:33;;;;;;;0.52;0.20;;;20.80;63.10;;;;;;4971127;28;20042;-43
2022/10/09 08:26:59;;;;;;;0.17;0.10;;;20.80;63.10;;;;;;4973864;28;20092;-43
2022/10/09 08:29:24;;;;;;;0.30;0.20;;;20.80;63.00;;;;;;4969183;28;20052;-43
2022/10/09 08:31:51;;;;;;;1.23;0.30;;;20.80;63.00;;;;;;4969587;28;20043;-43
2022/10/09 08:34:16;;;;;;;0.30;0.15;;;20.80;62.60;;;;;;4970457;28;20421;-42
2022/10/09 08:36:42;;;;;;;0.40;0.40;;;20.80;63.00;;;;;;4974182;28;20043;-43
2022/10/09 08:39:08;;;;;;;1.05;0.20;;;20.80;63.20;;;;;;4971543;28;21086;-44
2022/10/09 08:41:39;;;;;;;0.30;0.20;;;20.90;63.40;;;;;;4981525;28;20745;-43
2022/10/09 08:44:23;;;;;;;0.20;0.10;;;20.90;63.30;;;;;;4967882;28;20498;-43
2022/10/09 08:47:13;;;;;;;0.40;0.32;;;20.90;63.10;;;;;;4969075;28;20061;-44
2022/10/09 08:49:44;;;;;;;0.20;0.20;;;20.80;63.30;;;;;;4967626;28;20038;-42
2022/10/09 08:52:41;;;;;;;0.32;0.15;;;20.80;63.10;;;;;;4967647;28;20043;-42
2022/10/09 08:55:20;;;;;;;0.10;0.10;;;20.70;63.40;;;;;;4964912;28;20042;-42
2022/10/09 08:57:48;;;;;;;0.30;0.30;;;20.70;64.00;;;;;;4982095;28;20101;-42
2022/10/09 09:00:23;;;;;;;0.40;0.20;;;20.70;63.80;;;;;;4969826;28;20520;-42
2022/10/09 09:03:07;;;;;;;0.20;0.20;;;20.70;64.00;;;;;;4967859;28;20046;-43
2022/10/09 09:05:58;;;;;;;0.20;0.10;;;20.80;63.90;;;;;;4970214;28;20051;-42
2022/10/09 09:08:43;;;;;;;0.60;0.20;;;20.80;64.00;;;;;;4973509;28;20038;-41
2022/10/09 09:11:23;;;;;;;0.20;0.20;;;20.80;64.00;;;;;;4973728;28;20516;-42
2022/10/09 09:13:55;;;;;;;0.25;0.25;;;20.70;64.10;;;;;;4966316;28;20050;-42
2022/10/09 09:16:35;;;;;;;0.10;0.10;;;20.80;64.10;;;;;;4967344;28;20121;-39
2022/10/09 09:19:31;;;;;;;0.40;0.13;;;20.80;64.00;;;;;;4980742;28;20077;-42
2022/10/09 09:21:57;;;;;;;0.25;0.20;;;20.80;64.20;;;;;;4966313;28;20158;-42
2022/10/09 09:24:25;;;;;;;0.20;0.17;;;20.90;64.30;;;;;;4983811;28;20135;-42
2022/10/09 09:26:53;;;;;;;0.20;0.20;;;21.00;63.30;;;;;;4975926;28;20038;-43
2022/10/09 09:29:22;;;;;;;0.30;0.20;;;21.00;62.80;;;;;;4934473;28;20043;-42
2022/10/09 09:31:50;;;;;;;0.20;0.20;;;20.90;63.30;;;;;;4953549;28;20071;-43
2022/10/09 09:34:21;;;;;;;0.32;0.30;;;20.90;62.30;;;;;;4971638;28;20046;-42
2022/10/09 09:36:59;;;;;;;0.50;0.30;;;21.00;59.90;;;;;;4938662;28;20058;-44
2022/10/09 09:39:27;;;;;;;0.52;0.38;;;21.00;58.60;;;;;;4954729;28;20046;-41
2022/10/09 09:41:56;;;;;;;1.10;0.73;;;21.00;59.20;;;;;;4958087;28;20058;-45
2022/10/09 09:44:22;;;;;;;0.63;0.30;;;20.90;59.40;;;;;;4942740;28;20050;-46
2022/10/09 09:46:47;;;;;;;1.05;0.52;;;20.90;58.70;;;;;;4985126;28;20094;-41
2022/10/09 09:49:17;;;;;;;0.40;0.40;;;21.00;59.10;;;;;;4947893;28;20043;-42
2022/10/09 09:51:43;;;;;;;1.08;0.40;;;21.00;57.30;;;;;;4956119;28;20046;-43
2022/10/09 09:54:25;;;;;;;0.65;0.38;;;20.90;57.60;;;;;;4949746;28;20046;-42
2022/10/09 09:56:53;;;;;;;0.82;0.65;;;20.90;58.50;;;;;;4966245;28;20102;-43
2022/10/09 09:59:38;;;;;;;1.33;0.50;;;20.90;58.30;;;;;;4949452;28;20065;-39
2022/10/09 10:02:12;;;;;;;4.25;0.55;;;21.00;57.20;;;;;;4951967;28;20042;-42
2022/10/09 10:04:37;;;;;;;1.07;0.60;;;21.00;56.30;;;;;;4953980;28;20050;-42
2022/10/09 10:07:04;;;;;;;1.92;0.38;;;21.00;56.90;;;;;;4969883;28;20625;-44
2022/10/09 10:09:30;;;;;;;0.80;0.50;;;21.00;57.60;;;;;;4597503;28;10000091;-42
2022/10/09 10:11:57;;;;;;;0.40;0.40;;;21.00;57.70;;;;;;4944293;28;20537;-42
2022/10/09 10:14:23;;;;;;;5.30;0.70;;;21.00;57.50;;;;;;4975163;28;20943;-43
2022/10/09 10:16:50;;;;;;;0.70;0.43;;;21.00;57.30;;;;;;4956710;28;20145;-42
2022/10/09 10:19:19;;;;;;;1.55;0.80;;;20.90;57.20;;;;;;4962898;28;20071;-42
2022/10/09 10:21:57;;;;;;;1.35;0.60;;;21.00;57.80;;;;;;4959218;28;20063;-41
2022/10/09 10:24:42;;;;;;;0.80;0.80;;;21.00;58.20;;;;;;4946452;28;20130;-41
2022/10/09 10:27:34;;;;;;;3.75;1.02;;;21.00;58.40;;;;;;4930003;28;20106;-42
2022/10/09 10:30:09;;;;;;;1.30;0.98;;;21.10;58.10;;;;;;4963332;28;20051;-42
2022/10/09 10:32:52;;;;;;;1.58;1.20;;;21.00;57.80;;;;;;4970800;28;20052;-42
2022/10/09 10:35:23;;;;;;;2.25;1.20;;;21.00;58.70;;;;;;4948142;28;20067;-41
2022/10/09 10:37:58;;;;;;;1.80;1.30;;;21.00;58.10;;;;;;4964008;28;20461;-42
2022/10/09 10:40:32;;;;;;;2.72;1.10;;;21.00;58.10;;;;;;4944170;28;20416;-42
2022/10/09 10:43:00;;;;;;;;;;;21.10;58.00;;;;;;4936079;28;20039;-42
2022/10/09 10:45:47;;;;;;;1.60;1.33;;;21.20;58.60;;;;;;4601284;28;9999965;-40
2022/10/09 10:48:40;;;;;;;5.85;2.30;;;21.20;58.80;;;;;;4946661;28;20044;-45
2022/10/09 10:51:40;;;;;;;3.88;2.20;;;21.20;58.80;;;;;;4971050;28;20355;-44
2022/10/09 10:54:15;;;;;;;1.95;1.55;;;21.20;58.60;;;;;;4955345;28;20051;-43
2022/10/09 10:57:03;;;;;;;2.78;2.33;;;21.20;58.80;;;;;;4954880;28;21745;-42
2022/10/09 10:59:51;;;;;;;3.58;2.05;;;21.30;59.50;;;;;;4938705;28;20097;-42
2022/10/09 11:02:29;;;;;;;1.80;1.70;;;21.30;59.00;;;;;;4959707;28;20769;-43
2022/10/09 11:05:25;;;;;;;2.95;1.83;;;21.20;59.10;;;;;;4937524;28;21097;-43
2022/10/09 11:08:00;;;;;;;1.63;1.45;;;21.20;59.10;;;;;;4955964;28;20999;-44
2022/10/09 11:10:26;;;;;;;2.28;1.38;;;21.20;59.20;;;;;;4935788;28;20059;-43
2022/10/09 11:13:12;;;;;;;1.88;1.33;;;21.30;59.20;;;;;;4931278;28;20055;-43
2022/10/09 11:15:52;;;;;;;1.58;1.35;;;21.30;59.90;;;;;;4938554;28;20063;-44
2022/10/09 11:18:48;;;;;;;2.58;1.80;;;21.30;59.30;;;;;;4935052;28;20548;-43
2022/10/09 11:21:23;;;;;;;2.05;1.17;;;21.30;59.30;;;;;;4935841;28;20047;-43
2022/10/09 11:24:20;;;;;;;1.35;1.25;;;21.30;59.30;;;;;;4929796;28;20050;-43
2022/10/09 11:27:00;;;;;;;5.53;1.50;;;21.30;59.30;;;;;;4941783;28;20061;-42
2022/10/09 11:29:32;;;;;;;3.08;1.10;;;21.30;59.40;;;;;;4944144;28;20046;-42
2022/10/09 11:32:03;;;;;;;2.83;1.40;;;21.30;59.40;;;;;;4943771;28;20374;-42
2022/10/09 11:34:36;;;;;;;1.73;1.20;;;21.40;59.40;;;;;;4945057;28;20063;-43
2022/10/09 11:37:01;;;;;;;2.40;1.30;;;21.40;59.40;;;;;;4949814;28;20051;-43
2022/10/09 11:39:29;;;;;;;1.38;0.90;;;21.40;59.10;;;;;;4942139;28;20070;-42
2022/10/09 11:41:55;;;;;;;1.30;1.20;;;21.40;59.30;;;;;;4935323;28;20132;-45
2022/10/09 11:44:32;;;;;;;0.90;0.90;;;21.40;59.30;;;;;;4951002;28;20043;-43
2022/10/09 11:47:10;;;;;;;1.02;0.75;;;21.40;59.00;;;;;;4932112;28;20051;-44
2022/10/09 11:50:13;;;;;;;3.70;0.85;;;21.40;59.00;;;;;;4950628;28;20051;-43
2022/10/09 11:53:08;;;;;;;0.80;0.80;;;21.40;58.90;;;;;;4932861;28;20553;-43
2022/10/09 11:55:34;;;;;;;1.40;0.90;;;21.50;58.80;;;;;;4932323;28;20079;-43
2022/10/09 11:58:18;;;;;;;1.00;0.70;;;21.50;58.60;;;;;;4932572;28;20525;-41
2022/10/09 12:00:43;;;;;;;0.88;0.68;;;21.50;59.00;;;;;;4929030;28;20847;-44
2022/10/09 12:03:32;;;;;;;2.70;1.10;;;21.50;58.80;;;;;;4949033;28;20059;-43
2022/10/09 12:06:27;;;;;;;0.85;0.60;;;21.50;58.40;;;;;;4948878;28;20042;-44
2022/10/09 12:09:00;;;;;;;0.85;0.75;;;21.60;58.10;;;;;;4923795;28;20430;-43
2022/10/09 12:11:26;;;;;;;0.68;0.60;;;21.60;57.90;;;;;;4934965;28;21515;-41
2022/10/09 12:14:12;;;;;;;2.47;0.80;;;21.60;58.20;;;;;;4932846;28;20054;-43
2022/10/09 12:16:39;;;;;;;2.25;0.73;;;21.60;58.20;;;;;;4931387;28;20054;-43
2022/10/09 12:19:15;;;;;;;1.27;0.50;;;21.60;57.90;;;;;;4930025;28;20248;-43
2022/10/09 12:21:54;;;;;;;0.82;0.70;;;21.60;57.90;;;;;;4932301;28;20456;-43
2022/10/09 12:24:23;;;;;;;0.95;0.70;;;21.70;58.10;;;;;;4934053;28;20055;-43
2022/10/09 12:26:49;;;;;;;1.05;0.52;;;21.70;57.90;;;;;;4933302;28;20066;-47
2022/10/09 12:29:24;;;;;;;0.75;0.52;;;21.70;57.90;;;;;;4946100;28;20086;-43
2022/10/09 12:31:51;;;;;;;1.15;0.63;;;21.70;57.70;;;;;;4931739;28;20549;-43
2022/10/09 12:34:41;;;;;;;0.77;0.55;;;21.70;57.60;;;;;;4931973;28;20063;-44
2022/10/09 12:37:15;;;;;;;0.43;0.40;;;21.70;57.10;;;;;;4935114;28;20052;-43
2022/10/09 12:39:40;;;;;;;0.90;0.45;;;21.70;57.40;;;;;;4929429;28;20138;-43
2022/10/09 12:42:08;;;;;;;0.68;0.40;;;21.70;57.10;;;;;;4933106;28;20047;-44
2022/10/09 12:44:35;;;;;;;0.70;0.70;;;21.80;57.10;;;;;;4932236;28;20054;-43
2022/10/09 12:47:18;;;;;;;0.38;0.38;;;21.70;56.20;;;;;;4934574;28;20566;-43
2022/10/09 12:49:53;;;;;;;15.63;0.60;;;21.70;55.90;;;;;;4939255;28;20055;-43
2022/10/09 12:52:19;;;;;;;0.73;0.40;;;21.70;56.20;;;;;;4934659;28;20167;-42
2022/10/09 12:54:45;;;;;;;0.80;0.50;;;21.70;56.60;;;;;;4945939;28;20134;-43
2022/10/09 12:57:13;;;;;;;0.65;0.40;;;21.80;56.80;;;;;;4934277;28;20062;-43
2022/10/09 12:59:38;;;;;;;0.82;0.50;;;21.80;56.60;;;;;;4932278;28;20529;-43